HKNW

Nairobi Wilson Airport

Nairobi, Kenya
METAR HKNW 171500Z 12007KT 9999 FEW024 24/10 Q1021
Observed Flight Rules
Jul-17 @ 15:00 UTC (8 hours ago) Visual Flight Rules
Wind Visibility Clouds
120° at 7 knots 10,000+ meters
  • Few at 2,400' AGL
Temperatures Readings
Current 24°C / 75°F
Dewpoint 10°C / 50°F
Humidity 41%
Altimeter 30.15" Hg
Pressure 1021 hPa
Elevation 1679
METAR HKNW 171500Z 12007KT 9999 FEW024 24/10 Q1021
Observed Flight Rules
Jul-17 @ 15:00 UTC
(8 hours ago)
VFR
Wind Visibility
120° at 7 knots 10,000+ meters
Clouds
  • Few at 2,400' AGL
Temperature Dewpoint
24°C / 75°F 10°C / 50°F
Humidity Altimeter Pressure
41% 30.15" Hg 1021 hPa